createdAt,value
2023-02-22T00:01:00.279Z,98201.22
2023-02-22T00:03:32.539Z,98206.94
2023-02-22T00:06:05.405Z,98205.25
2023-02-22T00:08:35.781Z,98206.09
2023-02-22T00:11:08.795Z,98204.31
2023-02-22T00:13:37.278Z,98205.81
2023-02-22T00:16:05.117Z,98207.28
2023-02-22T00:18:32.127Z,98209.59
2023-02-22T00:21:01.160Z,98205.53
2023-02-22T00:23:30.876Z,98196.81
2023-02-22T00:25:59.525Z,98205.47
2023-02-22T00:28:27.062Z,98202.94
2023-02-22T00:30:55.200Z,98207.63
2023-02-22T00:33:23.383Z,98206.50
2023-02-22T00:35:50.470Z,98211.19
2023-02-22T00:38:19.868Z,98204.53
2023-02-22T00:40:47.092Z,98201.47
2023-02-22T00:43:16.924Z,98201.22
2023-02-22T00:45:44.285Z,98186.97
2023-02-22T00:48:11.502Z,98184.56
2023-02-22T00:50:39.420Z,98190.91
2023-02-22T00:53:07.927Z,98188.13
2023-02-22T00:55:37.823Z,98182.44
2023-02-22T00:58:07.149Z,98189.88
2023-02-22T01:00:41.818Z,98187.03
2023-02-22T01:03:11.646Z,98187.19
2023-02-22T01:05:39.449Z,98175.56
2023-02-22T01:08:08.804Z,98187.34
2023-02-22T01:10:37.460Z,98188.91
2023-02-22T01:13:09.415Z,98187.00
2023-02-22T01:15:40.383Z,98187.59
2023-02-22T01:18:08.663Z,98189.69
2023-02-22T01:20:35.921Z,98194.25
2023-02-22T01:23:07.993Z,98183.59
2023-02-22T01:25:36.056Z,98179.94
2023-02-22T01:28:05.132Z,98189.28
2023-02-22T01:30:35.444Z,98181.00
2023-02-22T01:33:05.057Z,98176.53
2023-02-22T01:35:35.965Z,98180.53
2023-02-22T01:38:03.560Z,98186.81
2023-02-22T01:40:35.825Z,98180.25
2023-02-22T01:43:19.604Z,98177.69
2023-02-22T01:45:58.318Z,98170.44
2023-02-22T01:48:38.776Z,98180.34
2023-02-22T01:51:12.233Z,98180.44
2023-02-22T01:54:02.302Z,98171.94
2023-02-22T01:56:33.031Z,98184.53
2023-02-22T01:59:03.759Z,98177.59
2023-02-22T02:01:31.092Z,98177.09
2023-02-22T02:04:00.499Z,98170.34
2023-02-22T02:06:31.964Z,98167.47
2023-02-22T02:09:43.967Z,98165.94
2023-02-22T02:12:14.433Z,98157.44
2023-02-22T02:14:44.121Z,98172.03
2023-02-22T02:17:18.207Z,98157.28
2023-02-22T02:20:07.454Z,98159.75
2023-02-22T02:22:43.759Z,98169.38
2023-02-22T02:26:10.128Z,98174.88
2023-02-22T02:29:07.140Z,98166.31
2023-02-22T02:31:53.241Z,98172.09
2023-02-22T02:34:42.116Z,98163.00
2023-02-22T02:37:18.334Z,98163.16
2023-02-22T02:40:11.790Z,98171.72
2023-02-22T02:42:51.739Z,98175.50
2023-02-22T02:45:26.920Z,98168.81
2023-02-22T02:47:58.998Z,98166.44
2023-02-22T02:50:32.346Z,98170.22
2023-02-22T02:53:05.960Z,98160.66
2023-02-22T02:55:36.847Z,98157.94
2023-02-22T02:58:08.645Z,98163.94
2023-02-22T03:00:41.396Z,98171.94
2023-02-22T03:03:27.475Z,98178.44
2023-02-22T03:06:06.769Z,98181.84
2023-02-22T03:08:45.396Z,98182.63
2023-02-22T03:11:20.174Z,98173.84
2023-02-22T03:14:03.174Z,98184.50
2023-02-22T03:16:52.421Z,98189.53
2023-02-22T03:19:33.482Z,98186.56
2023-02-22T03:22:04.338Z,98181.16
2023-02-22T03:24:37.649Z,98187.66
2023-02-22T03:27:15.726Z,98178.78
2023-02-22T03:29:51.404Z,98183.34
2023-02-22T03:32:23.856Z,98190.59
2023-02-22T03:35:03.108Z,98182.59
2023-02-22T03:37:35.439Z,98194.88
2023-02-22T03:40:16.160Z,98193.06
2023-02-22T03:42:51.338Z,98188.66
2023-02-22T03:45:25.492Z,98192.41
2023-02-22T03:48:03.734Z,98195.53
2023-02-22T03:50:35.906Z,98201.06
2023-02-22T03:53:05.678Z,98200.25
2023-02-22T03:55:35.966Z,98209.09
2023-02-22T03:58:10.552Z,98211.00
2023-02-22T04:00:39.141Z,98208.38
2023-02-22T04:03:06.328Z,98210.50
2023-02-22T04:05:33.850Z,98217.38
2023-02-22T04:08:01.753Z,98218.06
2023-02-22T04:10:31.078Z,98219.19
2023-02-22T04:12:59.405Z,98218.25
2023-02-22T04:15:27.258Z,98220.84
2023-02-22T04:18:01.333Z,98227.53
2023-02-22T04:20:28.586Z,98221.31
2023-02-22T04:22:58.662Z,98231.56
2023-02-22T04:25:26.948Z,98231.59
2023-02-22T04:27:54.956Z,98230.41
2023-02-22T04:30:34.442Z,98233.34
2023-02-22T04:33:03.573Z,98223.94
2023-02-22T04:35:30.605Z,98220.19
2023-02-22T04:37:58.614Z,98223.88
2023-02-22T04:40:25.672Z,98224.56
2023-02-22T04:42:53.016Z,98223.06
2023-02-22T04:45:20.301Z,98233.19
2023-02-22T04:47:47.956Z,98228.56
2023-02-22T04:50:16.443Z,98218.59
2023-02-22T04:52:44.381Z,98231.28
2023-02-22T04:55:12.288Z,98224.78
2023-02-22T04:57:40.001Z,98211.13
2023-02-22T05:00:09.713Z,98217.28
2023-02-22T05:02:41.081Z,98219.03
2023-02-22T05:05:08.998Z,98231.97
2023-02-22T05:07:36.741Z,98227.53
2023-02-22T05:10:04.270Z,98207.53
2023-02-22T05:12:31.261Z,98205.53
2023-02-22T05:14:58.875Z,98217.03
2023-02-22T05:17:25.854Z,98213.84
2023-02-22T05:19:53.453Z,98225.16
2023-02-22T05:22:20.644Z,98225.06
2023-02-22T05:24:48.550Z,98229.03
2023-02-22T05:27:15.531Z,98229.66
2023-02-22T05:29:42.793Z,98236.66
2023-02-22T05:32:10.149Z,98231.59
2023-02-22T05:34:37.416Z,98243.78
2023-02-22T05:37:05.297Z,98238.31
2023-02-22T05:39:33.077Z,98242.25
2023-02-22T05:42:00.520Z,98259.22
2023-02-22T05:44:28.207Z,98262.16
2023-02-22T05:46:55.684Z,98269.31
2023-02-22T05:49:22.711Z,98271.41
2023-02-22T05:51:50.969Z,98272.19
2023-02-22T05:54:17.897Z,98273.47
2023-02-22T05:56:45.286Z,98277.41
2023-02-22T05:59:12.875Z,98272.00
2023-02-22T06:01:40.313Z,98276.94
2023-02-22T06:04:07.295Z,98274.53
2023-02-22T06:06:34.765Z,98278.31
2023-02-22T06:09:02.047Z,98278.56
2023-02-22T06:11:29.055Z,98283.03
2023-02-22T06:13:56.153Z,98271.75
2023-02-22T06:16:24.487Z,98273.22
2023-02-22T06:18:51.799Z,98280.19
2023-02-22T06:21:19.659Z,98287.91
2023-02-22T06:23:47.141Z,98276.94
2023-02-22T06:26:17.196Z,98281.97
2023-02-22T06:28:44.300Z,98284.41
2023-02-22T06:31:11.447Z,98282.44
2023-02-22T06:33:38.547Z,98285.41
2023-02-22T06:36:05.887Z,98278.13
2023-02-22T06:38:33.491Z,98286.00
2023-02-22T06:41:00.593Z,98275.69
2023-02-22T06:43:27.716Z,98278.03
2023-02-22T06:45:54.801Z,98276.84
2023-02-22T06:48:21.879Z,98285.72
2023-02-22T06:50:48.843Z,98285.63
2023-02-22T06:53:16.327Z,98290.03
2023-02-22T06:55:43.898Z,98285.34
2023-02-22T06:58:10.873Z,98289.69
2023-02-22T07:00:37.962Z,98288.28
2023-02-22T07:03:05.314Z,98288.16
2023-02-22T07:05:32.446Z,98278.13
2023-02-22T07:08:05.755Z,98280.81
2023-02-22T07:10:35.216Z,98285.19
2023-02-22T07:13:03.722Z,98279.84
2023-02-22T07:15:32.886Z,98277.75
2023-02-22T07:18:02.542Z,98274.69
2023-02-22T07:20:31.298Z,98281.06
2023-02-22T07:22:58.334Z,98273.91
2023-02-22T07:25:25.749Z,98270.88
2023-02-22T07:27:53.168Z,98276.25
2023-02-22T07:30:31.410Z,98270.03
2023-02-22T07:33:00.891Z,98272.34
2023-02-22T07:35:30.519Z,98263.50
2023-02-22T07:37:57.853Z,98266.63
2023-02-22T07:40:26.590Z,98268.13
2023-02-22T07:43:01.478Z,98266.44
2023-02-22T07:45:31.277Z,98267.38
2023-02-22T07:47:59.729Z,98257.22
2023-02-22T07:50:30.311Z,98257.00
2023-02-22T07:52:58.779Z,98270.91
2023-02-22T07:55:28.579Z,98258.16
2023-02-22T07:57:59.644Z,98244.69
2023-02-22T08:00:32.802Z,98252.38
2023-02-22T08:03:01.781Z,98247.69
2023-02-22T08:05:30.115Z,98244.50
2023-02-22T08:07:57.261Z,98249.00
2023-02-22T08:10:26.063Z,98236.31
2023-02-22T08:12:54.092Z,98235.25
2023-02-22T08:15:36.886Z,98223.81
2023-02-22T08:18:09.271Z,98228.94
2023-02-22T08:20:38.139Z,98217.25
2023-02-22T08:23:06.822Z,98221.53
2023-02-22T08:25:34.506Z,98223.34
2023-02-22T08:28:05.741Z,98215.34
2023-02-22T08:30:35.167Z,98220.38
2023-02-22T08:33:03.435Z,98214.59
2023-02-22T08:35:32.673Z,98211.84
2023-02-22T08:38:04.672Z,98207.50
2023-02-22T08:40:35.473Z,98207.81
2023-02-22T08:43:03.685Z,98208.25
2023-02-22T08:45:31.112Z,98207.41
2023-02-22T08:47:59.704Z,98197.88
2023-02-22T08:50:35.918Z,98198.06
2023-02-22T08:53:05.380Z,98196.63
2023-02-22T08:55:35.091Z,98190.28
2023-02-22T08:58:03.334Z,98191.81
2023-02-22T09:00:33.525Z,98189.31
2023-02-22T09:03:02.162Z,98189.78
2023-02-22T09:05:31.430Z,98183.81
2023-02-22T09:07:59.396Z,98175.41
2023-02-22T09:10:30.319Z,98184.03
2023-02-22T09:13:01.082Z,98181.16
2023-02-22T09:15:29.590Z,98176.16
2023-02-22T09:17:57.293Z,98168.06
2023-02-22T09:20:25.163Z,98174.06
2023-02-22T09:22:52.872Z,98166.94
2023-02-22T09:25:23.096Z,98174.94
2023-02-22T09:27:52.151Z,98175.28
2023-02-22T09:30:32.472Z,98170.88
2023-02-22T09:33:06.386Z,98177.31
2023-02-22T09:35:36.587Z,98165.53
2023-02-22T09:38:06.524Z,98167.47
2023-02-22T09:40:41.241Z,98157.19
2023-02-22T09:43:21.555Z,98163.00
2023-02-22T09:46:13.871Z,98156.97
2023-02-22T09:49:03.554Z,98153.28
2023-02-22T09:51:42.409Z,98148.50
2023-02-22T09:54:34.462Z,98148.00
2023-02-22T09:57:08.901Z,98151.00
2023-02-22T09:59:48.766Z,98150.50
2023-02-22T10:02:36.150Z,98136.38
2023-02-22T10:05:14.111Z,98142.41
2023-02-22T10:07:48.090Z,98139.56
2023-02-22T10:10:19.624Z,98133.81
2023-02-22T10:12:59.048Z,98120.53
2023-02-22T10:15:51.847Z,98117.91
2023-02-22T10:18:46.831Z,98118.53
2023-02-22T10:21:22.075Z,98110.56
2023-02-22T10:24:14.778Z,98105.50
2023-02-22T10:26:45.100Z,98095.19
2023-02-22T10:29:19.133Z,98087.97
2023-02-22T10:31:52.293Z,98086.81
2023-02-22T10:34:25.678Z,98079.56
2023-02-22T10:37:08.387Z,98069.94
2023-02-22T10:39:39.052Z,98072.16
2023-02-22T10:42:08.322Z,98062.97
2023-02-22T10:44:37.021Z,98052.81
2023-02-22T10:47:11.051Z,98055.00
2023-02-22T10:49:46.530Z,98040.56
2023-02-22T10:52:22.530Z,98037.31
2023-02-22T10:54:52.182Z,98038.34
2023-02-22T10:57:32.210Z,98026.25
2023-02-22T11:00:15.696Z,98025.88
2023-02-22T11:02:53.949Z,98022.13
2023-02-22T11:05:30.047Z,98014.59
2023-02-22T11:08:21.471Z,98010.81
2023-02-22T11:10:54.144Z,98010.72
2023-02-22T11:13:30.332Z,98009.13
2023-02-22T11:16:27.201Z,97996.72
2023-02-22T11:19:03.155Z,97993.78
2023-02-22T11:21:32.814Z,97991.09
2023-02-22T11:24:08.786Z,97987.75
2023-02-22T11:27:01.460Z,97974.91
2023-02-22T11:29:34.879Z,97970.41
2023-02-22T11:32:13.675Z,97964.63
2023-02-22T11:34:42.959Z,97968.69
2023-02-22T11:37:33.783Z,97954.88
2023-02-22T11:40:19.769Z,97956.06
2023-02-22T11:42:47.907Z,97948.53
2023-02-22T11:45:25.050Z,97941.31
2023-02-22T11:47:59.437Z,97947.34
2023-02-22T11:50:28.036Z,97939.41
2023-02-22T11:53:06.468Z,97936.31
2023-02-22T11:55:45.210Z,97928.56
2023-02-22T11:58:46.647Z,97930.78
2023-02-22T12:01:35.451Z,97930.03
2023-02-22T12:04:23.051Z,97918.94
2023-02-22T12:06:51.572Z,97920.69
2023-02-22T12:09:25.428Z,97918.41
2023-02-22T12:12:15.499Z,97910.88
2023-02-22T12:15:01.356Z,97898.84
2023-02-22T12:17:43.692Z,97903.66
2023-02-22T12:20:22.341Z,97906.81
2023-02-22T12:23:03.291Z,97899.38
2023-02-22T12:25:42.260Z,97901.00
2023-02-22T12:28:26.984Z,97890.38
2023-02-22T12:31:28.956Z,97887.81
2023-02-22T12:34:38.479Z,97879.78
2023-02-22T12:37:23.331Z,97887.13
2023-02-22T12:40:08.745Z,97881.97
2023-02-22T12:43:22.871Z,97874.16
2023-02-22T12:46:12.834Z,97868.25
2023-02-22T12:48:49.953Z,97867.28
2023-02-22T12:51:30.157Z,97857.88
2023-02-22T12:54:40.501Z,97862.72
2023-02-22T12:57:26.257Z,97850.78
2023-02-22T13:00:02.790Z,97855.44
2023-02-22T13:06:05.399Z,97850.31
2023-02-22T13:08:51.795Z,97845.00
2023-02-22T13:11:37.669Z,97843.22
2023-02-22T13:14:30.314Z,97848.13
2023-02-22T13:17:05.999Z,97845.34
2023-02-22T13:19:49.269Z,97835.03
2023-02-22T13:22:25.664Z,97842.69
2023-02-22T13:24:56.815Z,97843.91
2023-02-22T13:27:51.267Z,97839.75
2023-02-22T13:30:24.411Z,97839.44
2023-02-22T13:33:19.403Z,97833.41
2023-02-22T13:35:59.068Z,97837.09
2023-02-22T13:38:33.612Z,97834.44
2023-02-22T13:41:03.415Z,97833.75
2023-02-22T13:43:52.119Z,97832.19
2023-02-22T13:46:37.794Z,97829.06
2023-02-22T13:49:20.886Z,97823.91
2023-02-22T13:52:02.098Z,97827.16
2023-02-22T13:55:03.153Z,97812.38
2023-02-22T13:57:39.817Z,97816.50
2023-02-22T14:00:16.670Z,97821.22
2023-02-22T14:03:02.039Z,97828.13
2023-02-22T14:05:50.387Z,97820.00
2023-02-22T14:08:17.657Z,97817.53
2023-02-22T14:10:51.316Z,97813.63
2023-02-22T14:13:22.719Z,97816.69
2023-02-22T14:16:00.527Z,97811.84
2023-02-22T14:18:36.822Z,97806.84
2023-02-22T14:21:20.164Z,97815.66
2023-02-22T14:23:50.919Z,97803.66
2023-02-22T14:26:35.019Z,97810.56
2023-02-22T14:29:08.167Z,97811.25
2023-02-22T14:31:41.407Z,97816.44
2023-02-22T14:34:16.228Z,97810.75
2023-02-22T14:37:02.876Z,97812.09
2023-02-22T14:39:41.603Z,97814.00
2023-02-22T14:42:30.242Z,97809.72
2023-02-22T14:45:10.169Z,97810.75
2023-02-22T14:47:49.784Z,97809.72
2023-02-22T14:50:24.261Z,97810.25
2023-02-22T14:53:07.143Z,97801.03
2023-02-22T14:55:42.646Z,97804.88
2023-02-22T14:58:19.907Z,97798.97
2023-02-22T15:00:49.537Z,97787.28
2023-02-22T15:03:29.130Z,97796.22
2023-02-22T15:05:59.874Z,97797.00
2023-02-22T15:08:28.768Z,97790.66
2023-02-22T15:10:55.749Z,97796.88
2023-02-22T15:13:28.420Z,97791.44
2023-02-22T15:16:01.877Z,97794.50
2023-02-22T15:19:00.123Z,97796.16
2023-02-22T15:21:30.250Z,97795.19
2023-02-22T15:24:08.315Z,97792.31
2023-02-22T15:27:00.330Z,97793.03
2023-02-22T15:29:36.234Z,97788.00
2023-02-22T15:32:29.613Z,97797.25
2023-02-22T15:35:12.602Z,97793.59
2023-02-22T15:37:40.261Z,97798.84
2023-02-22T15:40:21.117Z,97788.31
2023-02-22T15:42:58.547Z,97786.75
2023-02-22T15:45:26.362Z,97791.84
2023-02-22T15:47:56.609Z,97788.72
2023-02-22T15:50:28.853Z,97790.88
2023-02-22T15:53:07.736Z,97784.44
2023-02-22T15:55:44.116Z,97789.25
2023-02-22T15:58:24.101Z,97785.50
2023-02-22T16:01:05.485Z,97781.94
2023-02-22T16:03:45.147Z,97779.91
2023-02-22T16:06:18.220Z,97796.59
2023-02-22T16:08:55.184Z,97785.56
2023-02-22T16:11:33.059Z,97779.91
2023-02-22T16:14:05.233Z,97787.63
2023-02-22T16:16:37.576Z,97789.13
2023-02-22T16:19:25.682Z,97786.19
2023-02-22T16:21:58.586Z,97783.84
2023-02-22T16:24:33.951Z,97793.44
2023-02-22T16:27:06.952Z,97788.72
2023-02-22T16:29:34.139Z,97788.41
2023-02-22T16:32:02.089Z,97797.22
2023-02-22T16:34:29.243Z,97795.78
2023-02-22T16:36:56.984Z,97799.38
2023-02-22T16:39:27.382Z,97803.25
2023-02-22T16:41:57.681Z,97808.31
2023-02-22T16:44:25.734Z,97804.47
2023-02-22T16:47:00.869Z,97811.47
2023-02-22T16:49:28.017Z,97807.34
2023-02-22T16:51:59.038Z,97818.50
2023-02-22T16:54:29.194Z,97820.75
2023-02-22T16:57:00.490Z,97822.63
2023-02-22T16:59:28.481Z,97826.16
2023-02-22T17:01:58.972Z,97829.25
2023-02-22T17:04:29.651Z,97829.09
2023-02-22T17:06:59.243Z,97834.53
2023-02-22T17:09:26.603Z,97834.16
2023-02-22T17:11:54.208Z,97841.97
2023-02-22T17:14:24.576Z,97842.63
2023-02-22T17:16:52.142Z,97840.75
2023-02-22T17:19:24.617Z,97844.19
2023-02-22T17:21:52.174Z,97847.69
2023-02-22T17:24:23.195Z,97847.44
2023-02-22T17:26:53.241Z,97842.97
2023-02-22T17:29:20.824Z,97847.41
2023-02-22T17:31:49.134Z,97854.97
2023-02-22T17:34:16.485Z,97853.91
2023-02-22T17:36:43.927Z,97859.63
2023-02-22T17:39:11.313Z,97855.19
2023-02-22T17:41:40.630Z,97860.44
2023-02-22T17:44:08.592Z,97864.53
2023-02-22T17:46:36.980Z,97860.19
2023-02-22T17:49:04.006Z,97866.31
2023-02-22T17:51:31.039Z,97857.66
2023-02-22T17:53:58.315Z,97869.69
2023-02-22T17:56:25.672Z,97867.16
2023-02-22T17:58:55.106Z,97864.84
2023-02-22T18:01:27.346Z,97859.28
2023-02-22T18:03:56.113Z,97866.84
2023-02-22T18:06:27.286Z,97862.78
2023-02-22T18:08:56.793Z,97853.97
2023-02-22T18:11:28.503Z,97859.13
2023-02-22T18:13:57.127Z,97853.34
2023-02-22T18:16:28.509Z,97859.81
2023-02-22T18:18:56.499Z,97857.50
2023-02-22T18:21:24.642Z,97861.91
2023-02-22T18:23:59.125Z,97867.94
2023-02-22T18:26:26.797Z,97867.00
2023-02-22T18:28:54.089Z,97874.13
2023-02-22T18:31:22.541Z,97862.38
2023-02-22T18:33:54.887Z,97865.91
2023-02-22T18:36:23.531Z,97868.47
2023-02-22T18:38:53.257Z,97856.47
2023-02-22T18:41:25.985Z,97869.03
2023-02-22T18:43:55.631Z,97874.50
2023-02-22T18:46:24.470Z,97869.22
2023-02-22T18:48:56.856Z,97873.53
2023-02-22T18:51:24.939Z,97874.72
2023-02-22T18:53:57.154Z,97866.63
2023-02-22T18:56:29.846Z,97871.03
2023-02-22T18:59:02.762Z,97879.72
2023-02-22T19:01:31.483Z,97877.72
2023-02-22T19:04:00.469Z,97874.31
2023-02-22T19:06:27.521Z,97874.94
2023-02-22T19:08:54.573Z,97876.94
2023-02-22T19:11:24.151Z,97889.44
2023-02-22T19:13:54.160Z,97880.28
2023-02-22T19:16:23.442Z,97886.69
2023-02-22T19:18:52.913Z,97890.81
2023-02-22T19:21:20.988Z,97890.66
2023-02-22T19:23:49.077Z,97899.88
2023-02-22T19:26:27.753Z,97900.47
2023-02-22T19:28:56.870Z,97899.34
2023-02-22T19:31:34.107Z,97894.50
2023-02-22T19:34:04.045Z,97907.25
2023-02-22T19:36:32.174Z,97914.09
2023-02-22T19:39:02.853Z,97910.53
2023-02-22T19:41:31.483Z,97915.34
2023-02-22T19:43:59.010Z,97921.31
2023-02-22T19:46:26.849Z,97917.88
2023-02-22T19:48:58.013Z,97919.25
2023-02-22T19:51:28.928Z,97920.66
2023-02-22T19:54:07.265Z,97927.44
2023-02-22T19:56:35.696Z,97923.47
2023-02-22T19:59:17.039Z,97925.38
2023-02-22T20:01:44.734Z,97931.00
2023-02-22T20:04:18.673Z,97929.84
2023-02-22T20:06:47.137Z,97938.13
2023-02-22T20:09:18.454Z,97945.25
2023-02-22T20:11:47.632Z,97943.91
2023-02-22T20:14:26.523Z,97948.13
2023-02-22T20:16:55.657Z,97956.00
2023-02-22T20:19:23.615Z,97944.38
2023-02-22T20:21:52.701Z,97949.47
2023-02-22T20:24:20.277Z,97957.56
2023-02-22T20:26:47.773Z,97955.16
2023-02-22T20:29:19.503Z,97949.06
2023-02-22T20:31:52.741Z,97952.72
2023-02-22T20:34:20.199Z,97956.72
2023-02-22T20:36:47.211Z,97968.72
2023-02-22T20:39:15.128Z,97973.31
2023-02-22T20:41:44.565Z,97963.81
2023-02-22T20:44:16.546Z,97963.41
2023-02-22T20:46:45.499Z,97965.84
2023-02-22T20:49:17.616Z,97964.78
2023-02-22T20:51:48.549Z,97956.72
2023-02-22T20:54:17.018Z,97969.19
2023-02-22T20:56:45.922Z,97958.44
2023-02-22T20:59:15.412Z,97964.00
2023-02-22T21:01:42.724Z,97964.00
2023-02-22T21:04:11.571Z,97963.28
2023-02-22T21:06:40.457Z,97963.91
2023-02-22T21:09:13.486Z,97962.50
2023-02-22T21:11:40.827Z,97959.34
2023-02-22T21:14:09.286Z,97962.31
2023-02-22T21:16:37.669Z,97964.53
2023-02-22T21:19:07.263Z,97971.03
2023-02-22T21:21:36.485Z,97964.16
2023-02-22T21:24:08.130Z,97971.34
2023-02-22T21:26:36.410Z,97966.22
2023-02-22T21:29:06.635Z,97970.25
2023-02-22T21:31:37.234Z,97961.09
2023-02-22T21:34:04.984Z,97964.91
2023-02-22T21:36:32.508Z,97967.31
2023-02-22T21:39:03.481Z,97967.91
2023-02-22T21:41:31.588Z,97952.94
2023-02-22T21:43:59.871Z,97960.25
2023-02-22T21:46:29.423Z,97965.19
2023-02-22T21:48:59.094Z,97961.56
2023-02-22T21:51:34.048Z,97967.41
2023-02-22T21:54:03.945Z,97955.75
2023-02-22T21:56:34.624Z,97973.78
2023-02-22T21:59:25.614Z,97971.25
2023-02-22T22:01:58.309Z,97980.19
2023-02-22T22:04:31.654Z,97975.28
2023-02-22T22:07:00.420Z,97981.66
2023-02-22T22:09:33.281Z,97979.53
2023-02-22T22:12:05.357Z,97981.38
2023-02-22T22:14:34.487Z,97983.56
2023-02-22T22:17:03.193Z,97980.50
2023-02-22T22:19:34.418Z,97981.34
2023-02-22T22:22:01.848Z,97982.56
2023-02-22T22:24:32.327Z,97986.97
2023-02-22T22:27:03.903Z,97977.81
2023-02-22T22:29:32.517Z,97981.56
2023-02-22T22:32:00.102Z,97982.78
2023-02-22T22:34:29.813Z,97982.56
2023-02-22T22:36:58.643Z,97988.94
2023-02-22T22:39:27.058Z,97985.25
2023-02-22T22:41:54.219Z,97991.31
2023-02-22T22:44:23.883Z,97993.38
2023-02-22T22:46:53.958Z,97989.00
2023-02-22T22:49:25.819Z,97990.84
2023-02-22T22:51:53.648Z,97985.97
2023-02-22T22:54:20.635Z,97976.91
2023-02-22T22:56:47.648Z,97987.56
2023-02-22T22:59:15.486Z,97993.19
2023-02-22T23:01:47.102Z,97987.69
2023-02-22T23:04:16.602Z,97989.38
2023-02-22T23:06:50.753Z,97984.81
2023-02-22T23:09:30.615Z,97978.22
2023-02-22T23:12:09.040Z,97985.28
2023-02-22T23:14:39.197Z,97987.88
2023-02-22T23:17:15.425Z,97985.56
2023-02-22T23:19:47.008Z,97985.78
2023-02-22T23:22:14.607Z,97985.78
2023-02-22T23:24:41.832Z,97989.41
2023-02-22T23:27:10.978Z,97993.66
2023-02-22T23:29:40.752Z,97992.84
2023-02-22T23:32:09.131Z,97985.69
2023-02-22T23:34:37.178Z,97988.75
2023-02-22T23:37:04.222Z,97989.09
2023-02-22T23:39:31.239Z,97994.97
2023-02-22T23:42:03.508Z,97996.41
2023-02-22T23:44:30.874Z,97994.50
2023-02-22T23:46:58.057Z,97991.63
2023-02-22T23:49:39.024Z,97989.06
2023-02-22T23:52:07.525Z,97996.25
2023-02-22T23:54:36.624Z,98017.06
2023-02-22T23:57:04.876Z,98009.59
2023-02-22T23:59:33.598Z,98009.69
